Time;durP1;ratioP1;P1;durP2;ratioP2;P2;SDS_P1;SDS_P2;PMS_P1;PMS_P2;Temp;Humidity;BMP_temperature;BMP_pressure;BME280_temperature;BME280_humidity;BME280_pressure;Samples;Min_cycle;Max_cycle;Signal;HPM_P1;HPM_P2
2023/05/04 00:01:38;;;;;;;;;;;17.10;90.00;;;;;;5118724;28;19946;-60
2023/05/04 00:04:03;;;;;;;;;;;17.10;92.70;;;;;;5118716;28;19908;-61
2023/05/04 00:06:29;;;;;;;;;;;17.10;95.80;;;;;;5118768;28;20373;-61
2023/05/04 00:08:55;;;;;;;;;;;17.10;90.00;;;;;;5118578;28;19908;-60
2023/05/04 00:11:21;;;;;;;;;;;17.10;91.70;;;;;;5099827;28;19908;-60
2023/05/04 00:13:46;;;;;;;;;;;17.00;85.30;;;;;;5118219;28;19930;-61
2023/05/04 00:16:12;;;;;;;;;;;17.00;93.90;;;;;;5118809;28;19939;-61
2023/05/04 00:18:38;;;;;;;;;;;17.00;88.70;;;;;;5118633;28;19959;-61
2023/05/04 00:21:03;;;;;;;;;;;16.90;90.90;;;;;;5118535;28;19943;-61
2023/05/04 00:23:29;;;;;;;;;;;16.90;90.00;;;;;;5118597;28;20003;-60
2023/05/04 00:25:57;;;;;;;;;;;16.80;85.10;;;;;;5118341;28;19908;-61
2023/05/04 00:28:22;;;;;;;;;;;16.80;88.40;;;;;;5118724;28;19908;-61
2023/05/04 00:30:48;;;;;;;;;;;16.70;91.20;;;;;;5118276;28;19908;-61
2023/05/04 00:33:13;;;;;;;;;;;16.70;91.90;;;;;;5118553;28;19912;-61
2023/05/04 00:35:39;;;;;;;;;;;16.70;87.70;;;;;;5118556;28;19908;-61
2023/05/04 00:38:05;;;;;;;;;;;16.70;87.30;;;;;;5118262;28;19912;-61
2023/05/04 00:40:31;;;;;;;;;;;16.70;90.00;;;;;;5118362;28;19915;-61
2023/05/04 00:42:56;;;;;;;;;;;16.70;95.60;;;;;;5118471;28;20385;-60
2023/05/04 00:45:22;;;;;;;;;;;16.60;91.10;;;;;;5118372;28;19908;-61
2023/05/04 00:47:48;;;;;;;;;;;16.70;90.80;;;;;;5118313;28;20353;-61
2023/05/04 00:50:13;;;;;;;;;;;16.60;88.60;;;;;;5118280;28;19911;-60
2023/05/04 00:52:40;;;;;;;;;;;16.60;93.20;;;;;;5118373;28;20281;-61
2023/05/04 00:55:06;;;;;;;;;;;16.70;90.80;;;;;;5119356;28;19908;-61
2023/05/04 00:57:32;;;;;;;;;;;16.70;95.50;;;;;;5121943;28;20436;-61
2023/05/04 00:59:58;;;;;;;;;;;16.70;95.90;;;;;;5122228;28;19908;-60
2023/05/04 01:02:23;;;;;;;;;;;16.70;95.90;;;;;;5121953;28;20010;-61
2023/05/04 01:04:49;;;;;;;;;;;16.80;97.50;;;;;;5122387;28;19912;-60
2023/05/04 01:07:25;;;;;;;;;;;16.80;96.00;;;;;;5121859;28;19912;-61
2023/05/04 01:09:56;;;;;;;;;;;16.80;94.40;;;;;;5121843;28;19908;-61
2023/05/04 01:12:30;;;;;;;;;;;16.90;96.20;;;;;;5121856;28;19912;-61
2023/05/04 01:14:55;;;;;;;;;;;16.90;95.80;;;;;;5121549;28;19920;-60
2023/05/04 01:17:21;;;;;;;;;;;16.90;92.20;;;;;;5121885;28;19975;-60
2023/05/04 01:19:47;;;;;;;;;;;16.90;97.00;;;;;;5121655;28;19907;-61
2023/05/04 01:22:12;;;;;;;;;;;16.90;96.80;;;;;;5121605;28;19908;-60
2023/05/04 01:24:38;;;;;;;;;;;16.90;92.80;;;;;;5121289;28;19998;-61
2023/05/04 01:27:24;;;;;;;;;;;16.90;97.30;;;;;;5121844;28;19907;-60
2023/05/04 01:29:53;;;;;;;;;;;16.90;93.70;;;;;;5120718;28;19915;-61
2023/05/04 01:32:20;;;;;;;;;;;16.90;91.90;;;;;;5121494;28;19908;-61
2023/05/04 01:34:46;;;;;;;;;;;16.80;95.50;;;;;;5121319;28;19931;-60
2023/05/04 01:37:12;;;;;;;;;;;16.80;91.90;;;;;;5121520;28;19915;-60
2023/05/04 01:39:37;;;;;;;;;;;16.80;95.20;;;;;;5121441;28;19908;-61
2023/05/04 01:42:03;;;;;;;;;;;16.80;95.40;;;;;;5121186;28;19943;-61
2023/05/04 01:44:29;;;;;;;;;;;16.80;93.60;;;;;;5121350;28;19908;-61
2023/05/04 01:46:55;;;;;;;;;;;16.80;93.90;;;;;;5121365;28;20040;-60
2023/05/04 01:49:21;;;;;;;;;;;16.90;96.70;;;;;;5121268;28;19908;-60
2023/05/04 01:51:48;;;;;;;;;;;16.90;95.70;;;;;;5120925;28;19914;-61
2023/05/04 01:54:14;;;;;;;;;;;16.90;95.40;;;;;;5120676;28;20358;-61
2023/05/04 01:56:40;;;;;;;;;;;16.90;93.90;;;;;;5121269;28;19943;-61
2023/05/04 01:59:06;;;;;;;;;;;16.90;91.50;;;;;;5120861;28;19912;-61
2023/05/04 02:01:31;;;;;;;;;;;16.90;94.10;;;;;;5120985;28;19908;-60
2023/05/04 02:03:57;;;;;;;;;;;16.90;95.70;;;;;;5120972;28;19915;-60
2023/05/04 02:06:23;;;;;;;;;;;16.90;94.80;;;;;;5101944;28;19908;-61
2023/05/04 02:08:48;;;;;;;;;;;16.90;95.00;;;;;;5120817;28;19908;-60
2023/05/04 02:11:15;;;;;;;;;;;16.90;98.60;;;;;;5120674;28;20381;-61
2023/05/04 02:13:40;;;;;;;;;;;16.80;97.30;;;;;;5120440;28;19924;-61
2023/05/04 02:16:06;;;;;;;;;;;16.80;97.10;;;;;;5120566;28;19915;-61
2023/05/04 02:18:32;;;;;;;;;;;16.80;99.40;;;;;;5120740;28;19914;-61
2023/05/04 02:20:57;;;;;;;;;;;16.80;96.20;;;;;;5120482;28;19915;-60
2023/05/04 02:23:23;;;;;;;;;;;16.80;97.00;;;;;;5120417;28;19914;-61
2023/05/04 02:25:48;;;;;;;;;;;16.80;94.80;;;;;;5120380;28;19953;-60
2023/05/04 02:28:14;;;;;;;;;;;16.80;94.20;;;;;;5120456;28;20003;-61
2023/05/04 02:30:40;;;;;;;;;;;16.80;98.60;;;;;;5120720;28;19909;-61
2023/05/04 02:33:06;;;;;;;;;;;16.80;97.80;;;;;;5120204;28;19920;-61
2023/05/04 02:35:31;;;;;;;;;;;16.80;97.30;;;;;;5120301;28;19907;-60
2023/05/04 02:37:57;;;;;;;;;;;16.80;93.90;;;;;;5120499;28;19958;-61
2023/05/04 02:40:23;;;;;;;;;;;16.90;93.60;;;;;;5120222;28;19951;-60
2023/05/04 02:42:48;;;;;;;;;;;16.90;99.40;;;;;;5120144;28;19915;-61
2023/05/04 02:45:14;;;;;;;;;;;16.90;94.70;;;;;;5120030;28;19916;-60
2023/05/04 02:47:40;;;;;;;;;;;16.90;96.40;;;;;;5119935;28;19908;-60
2023/05/04 02:50:06;;;;;;;;;;;16.90;99.90;;;;;;5119692;28;19908;-61
2023/05/04 02:52:31;;;;;;;;;;;16.90;99.90;;;;;;5120149;28;19919;-61
2023/05/04 02:54:57;;;;;;;;;;;16.80;99.90;;;;;;5120038;28;19908;-60
2023/05/04 02:57:24;;;;;;;;;;;16.60;99.90;;;;;;5119851;28;19912;-60
2023/05/04 02:59:49;;;;;;;;;;;16.60;99.90;;;;;;5120086;28;20342;-60
2023/05/04 03:02:15;;;;;;;;;;;16.60;99.90;;;;;;5119623;28;20296;-61
2023/05/04 03:04:41;;;;;;;;;;;16.60;99.90;;;;;;5119982;28;20372;-60
2023/05/04 03:07:07;;;;;;;;;;;16.70;99.90;;;;;;5119762;28;19975;-60
2023/05/04 03:09:33;;;;;;;;;;;16.60;99.90;;;;;;5119480;28;19908;-61
2023/05/04 03:11:58;;;;;;;;;;;16.60;99.90;;;;;;5119322;28;19914;-61
2023/05/04 03:14:25;;;;;;;;;;;16.40;99.90;;;;;;5119239;28;19942;-60
2023/05/04 03:16:51;;;;;;;;;;;16.30;99.90;;;;;;5101021;28;19935;-61
2023/05/04 03:19:17;;;;;;;;;;;16.20;99.90;;;;;;5118853;28;20268;-60
2023/05/04 03:21:44;;;;;;;;;;;16.20;99.90;;;;;;5119145;28;20370;-61
2023/05/04 03:24:10;;;;;;;;;;;16.20;99.90;;;;;;5119446;28;19915;-60
2023/05/04 03:26:36;;;;;;;;;;;16.20;99.90;;;;;;5119327;28;19908;-60
2023/05/04 03:29:01;;;;;;;;;;;16.20;99.90;;;;;;5119291;28;19908;-60
2023/05/04 03:31:27;;;;;;;;;;;16.20;99.90;;;;;;5119498;28;19915;-61
2023/05/04 03:33:52;;;;;;;;;;;16.20;99.90;;;;;;5118998;28;20301;-61
2023/05/04 03:36:18;;;;;;;;;;;16.20;99.90;;;;;;5119232;28;19908;-61
2023/05/04 03:38:44;;;;;;;;;;;16.20;99.90;;;;;;5119131;28;20273;-61
2023/05/04 03:41:10;;;;;;;;;;;16.20;99.90;;;;;;5119272;28;20269;-61
2023/05/04 03:43:35;;;;;;;;;;;16.20;99.90;;;;;;5119012;28;19923;-60
2023/05/04 03:46:01;;;;;;;;;;;16.20;99.90;;;;;;5119249;28;19908;-60
2023/05/04 03:48:26;;;;;;;;;;;16.00;99.90;;;;;;5118539;28;20065;-60
2023/05/04 03:50:52;;;;;;;;;;;15.90;99.90;;;;;;5119113;28;20076;-61
2023/05/04 03:53:18;;;;;;;;;;;15.90;99.90;;;;;;5118815;28;20330;-60
2023/05/04 03:55:43;;;;;;;;;;;15.80;99.90;;;;;;5118681;28;19908;-60
2023/05/04 03:58:10;;;;;;;;;;;15.80;99.90;;;;;;5118670;28;19995;-61
2023/05/04 04:00:35;;;;;;;;;;;15.80;99.90;;;;;;5118616;28;19908;-60
2023/05/04 04:03:01;;;;;;;;;;;15.80;99.90;;;;;;5118787;28;19914;-61
2023/05/04 04:05:27;;;;;;;;;;;15.80;99.90;;;;;;5118723;28;19933;-60
2023/05/04 04:07:53;;;;;;;;;;;15.80;99.90;;;;;;5118570;28;19907;-61
2023/05/04 04:10:18;;;;;;;;;;;15.80;99.90;;;;;;5118946;28;20370;-61
2023/05/04 04:12:44;;;;;;;;;;;15.80;99.90;;;;;;5118377;28;19918;-61
2023/05/04 04:15:10;;;;;;;;;;;15.80;99.90;;;;;;5118690;28;19911;-60
2023/05/04 04:17:36;;;;;;;;;;;15.60;99.90;;;;;;5118427;28;19908;-61
2023/05/04 04:20:01;;;;;;;;;;;15.60;99.90;;;;;;5118622;28;19977;-61
2023/05/04 04:22:27;;;;;;;;;;;15.70;99.90;;;;;;5118547;28;20330;-61
2023/05/04 04:24:53;;;;;;;;;;;15.70;99.90;;;;;;5118815;28;19908;-61
2023/05/04 04:27:18;;;;;;;;;;;15.70;99.90;;;;;;5118309;28;19908;-60
2023/05/04 04:29:44;;;;;;;;;;;15.70;99.90;;;;;;5120914;28;20376;-61
2023/05/04 04:32:10;;;;;;;;;;;15.60;99.90;;;;;;5122995;28;19908;-60
2023/05/04 04:34:35;;;;;;;;;;;15.60;99.90;;;;;;5122453;28;19955;-60
2023/05/04 04:37:01;;;;;;;;;;;15.60;99.90;;;;;;5123027;28;20346;-61
2023/05/04 04:39:27;;;;;;;;;;;15.60;99.90;;;;;;5122744;28;19916;-60
2023/05/04 04:41:52;;;;;;;;;;;15.50;99.90;;;;;;5122540;28;19991;-60
2023/05/04 04:44:19;;;;;;;;;;;15.40;99.90;;;;;;5122646;28;20357;-61
2023/05/04 04:46:46;;;;;;;;;;;15.30;99.90;;;;;;5122470;28;20349;-61
2023/05/04 04:49:11;;;;;;;;;;;15.30;99.90;;;;;;5122250;28;19953;-60
2023/05/04 04:51:37;;;;;;;;;;;15.30;99.90;;;;;;5122425;28;19908;-60
2023/05/04 04:54:03;;;;;;;;;;;15.30;99.90;;;;;;5122249;28;19919;-60
2023/05/04 04:56:29;;;;;;;;;;;15.20;99.90;;;;;;5122309;28;19912;-60
2023/05/04 04:58:54;;;;;;;;;;;15.20;99.90;;;;;;5122033;28;19956;-61
2023/05/04 05:01:20;;;;;;;;;;;15.20;99.90;;;;;;5122021;28;19915;-61
2023/05/04 05:03:46;;;;;;;;;;;15.20;99.90;;;;;;5122131;28;19912;-61
2023/05/04 05:06:12;;;;;;;;;;;15.20;99.90;;;;;;5122074;28;19907;-60
2023/05/04 05:08:38;;;;;;;;;;;15.30;99.90;;;;;;5122267;28;19994;-61
2023/05/04 05:11:04;;;;;;;;;;;15.30;99.90;;;;;;5121983;28;19907;-61
2023/05/04 05:13:30;;;;;;;;;;;15.30;99.90;;;;;;5121783;28;20307;-61
2023/05/04 05:15:56;;;;;;;;;;;15.30;99.90;;;;;;5121639;28;19915;-61
2023/05/04 05:18:22;;;;;;;;;;;15.30;99.90;;;;;;5122026;28;19959;-60
2023/05/04 05:20:48;;;;;;;;;;;15.30;99.90;;;;;;5121551;28;19991;-60
2023/05/04 05:23:13;;;;;;;;;;;15.30;99.90;;;;;;5121362;28;20002;-60
2023/05/04 05:25:40;;;;;;;;;;;15.30;99.90;;;;;;5122060;28;19966;-60
2023/05/04 05:28:06;;;;;;;;;;;15.30;99.90;;;;;;5121358;28;19907;-61
2023/05/04 05:30:31;;;;;;;;;;;15.30;99.90;;;;;;5121215;28;19951;-60
2023/05/04 05:32:57;;;;;;;;;;;15.30;99.90;;;;;;5121308;28;19916;-61
2023/05/04 05:35:22;;;;;;;;;;;15.30;99.90;;;;;;5121819;28;19908;-60
2023/05/04 05:37:48;;;;;;;;;;;15.30;99.90;;;;;;5121295;28;19907;-61
2023/05/04 05:40:14;;;;;;;;;;;15.30;99.90;;;;;;5120573;28;19915;-60
2023/05/04 05:42:41;;;;;;;;;;;15.30;99.90;;;;;;5102563;28;19908;-61
2023/05/04 05:45:08;;;;;;;;;;;15.30;99.90;;;;;;5121152;28;19911;-60
2023/05/04 05:47:33;;;;;;;;;;;15.40;99.90;;;;;;5121435;28;20366;-61
2023/05/04 05:49:59;;;;;;;;;;;15.30;99.90;;;;;;5121260;28;19931;-61
2023/05/04 05:52:25;;;;;;;;;;;15.30;99.90;;;;;;5120743;28;20030;-61
2023/05/04 05:54:51;;;;;;;;;;;15.40;99.90;;;;;;5121133;28;19907;-60
2023/05/04 05:57:16;;;;;;;;;;;15.40;99.90;;;;;;5102416;28;19919;-61
2023/05/04 05:59:43;;;;;;;;;;;15.40;99.90;;;;;;5121025;28;19908;-61
2023/05/04 06:02:10;;;;;;;;;;;15.40;99.90;;;;;;5120661;28;19929;-60
2023/05/04 06:04:36;;;;;;;;;;;15.40;99.90;;;;;;5120792;28;19953;-61
2023/05/04 06:07:01;;;;;;;;;;;15.50;99.90;;;;;;5120976;28;19911;-61
2023/05/04 06:09:27;;;;;;;;;;;15.50;99.90;;;;;;5120677;28;19951;-60
2023/05/04 06:11:52;;;;;;;;;;;15.50;99.90;;;;;;5121000;28;20025;-61
2023/05/04 06:14:18;;;;;;;;;;;15.60;99.90;;;;;;5120387;28;20073;-60
2023/05/04 06:16:44;;;;;;;;;;;15.70;99.90;;;;;;5120963;28;19908;-61
2023/05/04 06:19:09;;;;;;;;;;;15.70;99.90;;;;;;5120517;28;20006;-61
2023/05/04 06:21:35;;;;;;;;;;;15.80;99.90;;;;;;5120324;28;19929;-60
2023/05/04 06:24:01;;;;;;;;;;;15.80;99.90;;;;;;5120562;28;19908;-60
2023/05/04 06:26:27;;;;;;;;;;;15.80;99.90;;;;;;5120356;28;19919;-61
2023/05/04 06:28:52;;;;;;;;;;;15.80;99.90;;;;;;5120201;28;19911;-61
2023/05/04 06:31:18;;;;;;;;;;;15.80;99.90;;;;;;5120201;28;20340;-61
2023/05/04 06:33:44;;;;;;;;;;;15.90;99.90;;;;;;5119739;28;19911;-61
2023/05/04 06:36:10;;;;;;;;;;;15.90;99.90;;;;;;5119782;28;19959;-60
2023/05/04 06:38:36;;;;;;;;;;;16.00;99.90;;;;;;5119840;28;19935;-61
2023/05/04 06:41:02;;;;;;;;;;;16.00;99.90;;;;;;5120221;28;19908;-61
2023/05/04 06:43:27;;;;;;;;;;;16.00;99.90;;;;;;5120219;28;19958;-61
2023/05/04 06:45:53;;;;;;;;;;;16.00;99.90;;;;;;5119989;28;19908;-61
2023/05/04 06:48:18;;;;;;;;;;;16.10;99.90;;;;;;5119903;28;19908;-62
2023/05/04 06:50:44;;;;;;;;;;;16.00;99.90;;;;;;5120099;28;19908;-61
2023/05/04 06:53:10;;;;;;;;;;;16.10;99.90;;;;;;5118634;28;20389;-62
2023/05/04 06:55:36;;;;;;;;;;;16.10;99.90;;;;;;5119773;28;19914;-62
2023/05/04 06:58:02;;;;;;;;;;;16.20;99.90;;;;;;5119656;28;19947;-61
2023/05/04 07:00:28;;;;;;;;;;;16.10;99.90;;;;;;5119838;28;20002;-61
2023/05/04 07:02:53;;;;;;;;;;;16.10;99.90;;;;;;5119797;28;19907;-62
2023/05/04 07:05:22;;;;;;;;;;;16.00;99.90;;;;;;5101129;28;19930;-61
2023/05/04 07:07:48;;;;;;;;;;;16.00;99.90;;;;;;5119715;28;19908;-61
2023/05/04 07:10:14;;;;;;;;;;;16.10;99.90;;;;;;5119684;28;19977;-62
2023/05/04 07:12:40;;;;;;;;;;;16.10;99.90;;;;;;5121841;27;19923;-61
2023/05/04 07:15:07;;;;;;;;;;;16.10;99.90;;;;;;5139390;27;19919;-62
2023/05/04 07:17:33;;;;;;;;;;;16.10;99.90;;;;;;5139466;27;19907;-62
2023/05/04 07:20:03;;;;;;;;;;;16.00;99.90;;;;;;5139532;27;19995;-61
2023/05/04 07:22:30;;;;;;;;;;;16.00;99.90;;;;;;5139375;27;19915;-61
2023/05/04 07:24:59;;;;;;;;;;;16.10;99.90;;;;;;5139652;27;19953;-61
2023/05/04 07:27:24;;;;;;;;;;;16.10;99.90;;;;;;5139196;27;19957;-62
2023/05/04 07:29:50;;;;;;;;;;;16.10;99.90;;;;;;5139388;27;20354;-61
2023/05/04 07:32:16;;;;;;;;;;;16.10;99.90;;;;;;5139779;27;19919;-61
2023/05/04 07:34:45;;;;;;;;;;;16.00;99.90;;;;;;5138861;27;19911;-61
2023/05/04 07:37:10;;;;;;;;;;;15.90;99.90;;;;;;5138680;27;19930;-62
2023/05/04 07:39:37;;;;;;;;;;;15.90;99.90;;;;;;5138808;27;19912;-61
2023/05/04 07:42:03;;;;;;;;;;;15.80;99.90;;;;;;5138296;27;19908;-61
2023/05/04 07:44:30;;;;;;;;;;;15.80;99.90;;;;;;5138685;27;19907;-61
2023/05/04 07:46:58;;;;;;;;;;;15.70;99.90;;;;;;5138612;27;19956;-61
2023/05/04 07:49:24;;;;;;;;;;;15.70;99.90;;;;;;5138712;27;19907;-61
2023/05/04 07:51:50;;;;;;;;;;;15.70;99.90;;;;;;5138503;27;20377;-61
2023/05/04 07:54:16;;;;;;;;;;;15.60;99.90;;;;;;5138480;27;19912;-61
2023/05/04 07:56:42;;;;;;;;;;;15.60;99.90;;;;;;5138687;27;19917;-61
2023/05/04 07:59:07;;;;;;;;;;;15.50;99.90;;;;;;5138388;27;19907;-61
2023/05/04 08:01:33;;;;;;;;;;;15.50;99.90;;;;;;5138658;27;19908;-61
2023/05/04 08:03:59;;;;;;;;;;;15.50;99.90;;;;;;5138336;27;20006;-61
2023/05/04 08:06:25;;;;;;;;;;;15.40;99.90;;;;;;5138764;27;20001;-61
2023/05/04 08:08:50;;;;;;;;;;;15.40;99.90;;;;;;5138745;27;19960;-61
2023/05/04 08:11:16;;;;;;;;;;;15.30;99.90;;;;;;5138261;27;20120;-61
2023/05/04 08:13:46;;;;;;;;;;;15.30;99.90;;;;;;5119339;27;20007;-61
2023/05/04 08:16:14;;;;;;;;;;;15.30;99.90;;;;;;5112917;28;20210;-61
2023/05/04 08:18:40;;;;;;;;;;;15.30;99.90;;;;;;5115336;28;19942;-61
2023/05/04 08:21:06;;;;;;;;;;;15.30;99.90;;;;;;5115689;28;19908;-61
2023/05/04 08:23:32;;;;;;;;;;;15.30;99.90;;;;;;5096104;28;19919;-61
2023/05/04 08:26:00;;;;;;;;;;;15.50;99.90;;;;;;5105858;28;19962;-61
2023/05/04 08:28:26;;;;;;;;;;;15.50;99.90;;;;;;5115367;28;19908;-61
2023/05/04 08:30:52;;;;;;;;;;;15.50;99.90;;;;;;5106938;28;19919;-61
2023/05/04 08:33:18;;;;;;;;;;;15.30;99.90;;;;;;5112915;28;19924;-62
2023/05/04 08:35:44;;;;;;;;;;;15.30;99.90;;;;;;5112139;28;20365;-61
2023/05/04 08:38:10;;;;;;;;;;;15.30;99.90;;;;;;5107192;28;19974;-61
2023/05/04 08:40:39;;;;;;;;;;;15.40;99.90;;;;;;5118077;28;19908;-61
2023/05/04 08:43:04;;;;;;;;;;;15.40;99.90;;;;;;5100829;28;19909;-61
2023/05/04 08:45:30;;;;;;;;;;;15.50;99.90;;;;;;5101570;28;19983;-61
2023/05/04 08:47:56;;;;;;;;;;;15.50;99.90;;;;;;5112667;28;19919;-61
2023/05/04 08:50:22;;;;;;;;;;;15.50;99.90;;;;;;5112661;28;20308;-61
2023/05/04 08:52:48;;;;;;;;;;;15.60;99.90;;;;;;5098850;28;20402;-62
2023/05/04 08:55:15;;;;;;;;;;;15.70;99.90;;;;;;5096593;28;19908;-61
2023/05/04 08:57:42;;;;;;;;;;;15.70;99.90;;;;;;5096765;28;19914;-61
2023/05/04 09:00:08;;;;;;;;;;;15.60;99.90;;;;;;5097819;28;19947;-61
2023/05/04 09:02:34;;;;;;;;;;;15.70;99.90;;;;;;5098364;28;19943;-61
2023/05/04 09:05:00;;;;;;;;;;;15.50;99.90;;;;;;5097616;28;19909;-61
2023/05/04 09:07:26;;;;;;;;;;;15.50;99.90;;;;;;5097317;28;19908;-61
2023/05/04 09:09:51;;;;;;;;;;;15.40;99.90;;;;;;5097152;28;20359;-61
2023/05/04 09:12:18;;;;;;;;;;;15.40;99.90;;;;;;5097516;28;19940;-61
2023/05/04 09:14:45;;;;;;;;;;;15.40;99.90;;;;;;5097192;28;19920;-61
2023/05/04 09:17:24;;;;;;;;;;;15.30;99.90;;;;;;5100813;28;19995;-61
2023/05/04 09:20:02;;;;;;;;;;;15.50;99.90;;;;;;5101678;28;19915;-61
2023/05/04 09:22:28;;;;;;;;;;;15.70;99.90;;;;;;5101291;28;19908;-61
2023/05/04 09:25:04;;;;;;;;;;;15.80;99.90;;;;;;5101080;28;19915;-61
2023/05/04 09:27:30;;;;;;;;;;;15.70;99.90;;;;;;5101048;28;19915;-61
2023/05/04 09:29:55;;;;;;;;;;;15.70;99.90;;;;;;5100975;28;19908;-61
2023/05/04 09:32:21;;;;;;;;;;;15.70;99.90;;;;;;5101109;28;19908;-61
2023/05/04 09:34:50;;;;;;;;;;;15.70;99.90;;;;;;5100807;28;19920;-61
2023/05/04 09:37:17;;;;;;;;;;;15.80;99.90;;;;;;5100642;28;19908;-61
2023/05/04 09:39:53;;;;;;;;;;;15.80;99.90;;;;;;5101004;28;19908;-61
2023/05/04 09:42:20;;;;;;;;;;;15.90;99.90;;;;;;5101208;28;19957;-61
2023/05/04 09:44:56;;;;;;;;;;;15.90;99.90;;;;;;5101304;28;19908;-61
2023/05/04 09:47:22;;;;;;;;;;;16.10;99.90;;;;;;5100782;28;19998;-61
2023/05/04 09:49:47;;;;;;;;;;;16.10;99.90;;;;;;5082427;28;20009;-61
2023/05/04 09:52:13;;;;;;;;;;;16.10;99.90;;;;;;5101023;28;19912;-61
2023/05/04 09:54:40;;;;;;;;;;;16.10;99.90;;;;;;5100678;28;19912;-61
2023/05/04 09:57:11;;;;;;;;;;;16.10;99.90;;;;;;5100690;28;19908;-61
2023/05/04 09:59:38;;;;;;;;;;;16.20;99.90;;;;;;5100616;28;19931;-61
2023/05/04 10:02:04;;;;;;;;;;;16.20;99.90;;;;;;5100285;28;19909;-61
2023/05/04 10:04:33;;;;;;;;;;;15.90;99.90;;;;;;5100604;28;19908;-60
2023/05/04 10:07:01;;;;;;;;;;;15.70;99.90;;;;;;5082072;28;19908;-60
2023/05/04 10:09:28;;;;;;;;;;;15.50;99.90;;;;;;5100217;28;19908;-61
2023/05/04 10:11:55;;;;;;;;;;;15.80;99.90;;;;;;5100611;28;20362;-61
2023/05/04 10:14:21;;;;;;;;;;;16.10;99.90;;;;;;5099899;28;19920;-61
2023/05/04 10:16:50;;;;;;;;;;;16.40;99.90;;;;;;5100059;28;19962;-62
2023/05/04 10:19:38;;;;;;;;;;;16.70;99.90;;;;;;5100224;28;19908;-61
2023/05/04 10:22:42;;;;;;;;;;;17.00;99.90;;;;;;5100227;28;19908;-62
2023/05/04 10:25:11;;;;;;;;;;;17.30;99.90;;;;;;5037623;28;19916;-62
2023/05/04 10:27:48;;;;;;;;;;;17.50;99.90;;;;;;5037599;28;19913;-61
2023/05/04 10:30:15;;;;;;;;;;;17.50;99.90;;;;;;5054869;28;19951;-61
2023/05/04 10:32:41;;;;;;;;;;;17.50;99.90;;;;;;5099613;28;20256;-62
2023/05/04 10:35:07;;;;;;;;;;;17.40;99.90;;;;;;5099958;28;19919;-61
2023/05/04 10:37:34;;;;;;;;;;;17.30;99.90;;;;;;5099864;28;19991;-61
2023/05/04 10:40:00;;;;;;;;;;;17.30;99.90;;;;;;5099793;28;19908;-61
2023/05/04 10:42:26;;;;;;;;;;;17.30;99.90;;;;;;5081143;28;20282;-62
2023/05/04 10:44:53;;;;;;;;;;;17.40;99.90;;;;;;5099270;28;19916;-62
2023/05/04 10:47:32;;;;;;;;;;;17.70;99.90;;;;;;5099899;28;20365;-62
2023/05/04 10:50:04;;;;;;;;;;;17.90;99.90;;;;;;5099699;28;19947;-61
2023/05/04 10:52:30;;;;;;;;;;;17.70;99.90;;;;;;5099266;28;19915;-61
2023/05/04 10:55:00;;;;;;;;;;;17.60;99.90;;;;;;5099492;28;19916;-61
2023/05/04 10:57:27;;;;;;;;;;;17.60;99.90;;;;;;5099276;28;20393;-61
2023/05/04 10:59:55;;;;;;;;;;;17.60;99.90;;;;;;5099051;28;19908;-61
2023/05/04 11:02:22;;;;;;;;;;;17.60;99.90;;;;;;5099417;28;19954;-62
2023/05/04 11:04:57;;;;;;;;;;;17.60;99.90;;;;;;5099454;28;20002;-61
2023/05/04 11:07:31;;;;;;;;;;;17.50;99.90;;;;;;5099407;28;19908;-61
2023/05/04 11:09:58;;;;;;;;;;;17.50;99.90;;;;;;5099213;28;20015;-61
2023/05/04 11:12:23;;;;;;;;;;;17.50;99.90;;;;;;5099018;28;19915;-62
2023/05/04 11:14:49;;;;;;;;;;;17.30;99.90;;;;;;5098408;28;19920;-62
2023/05/04 11:17:15;;;;;;;;;;;17.40;99.90;;;;;;5099137;28;19930;-62
2023/05/04 11:19:50;;;;;;;;;;;17.30;99.90;;;;;;5098918;28;19995;-61
2023/05/04 11:22:17;;;;;;;;;;;17.40;99.90;;;;;;5098990;28;19908;-62
2023/05/04 11:24:43;;;;;;;;;;;17.50;99.90;;;;;;5098552;28;20370;-61
2023/05/04 11:27:22;;;;;;;;;;;17.40;99.90;;;;;;5080467;28;19957;-61
2023/05/04 11:29:57;;;;;;;;;;;17.00;99.90;;;;;;5098933;28;20295;-61
2023/05/04 11:32:36;;;;;;;;;;;16.90;99.90;;;;;;5098849;28;20283;-61
2023/05/04 11:35:03;;;;;;;;;;;17.00;99.90;;;;;;5098607;28;20371;-61
2023/05/04 11:37:29;;;;;;;;;;;17.30;99.90;;;;;;5099000;28;19908;-61
2023/05/04 11:39:55;;;;;;;;;;;17.50;99.90;;;;;;5098102;28;19954;-61
2023/05/04 11:42:21;;;;;;;;;;;18.20;99.90;;;;;;5098392;28;19908;-61
2023/05/04 11:44:48;;;;;;;;;;;19.00;99.90;;;;;;5098616;28;19974;-61
2023/05/04 11:47:14;;;;;;;;;;;19.00;99.90;;;;;;5098572;28;20370;-61
2023/05/04 11:49:40;;;;;;;;;;;19.10;99.90;;;;;;5098364;28;19916;-61
2023/05/04 11:52:09;;;;;;;;;;;18.80;99.90;;;;;;5098254;28;20431;-61
2023/05/04 11:54:35;;;;;;;;;;;18.40;99.90;;;;;;5098380;28;19912;-61
2023/05/04 11:57:02;;;;;;;;;;;18.30;99.90;;;;;;5098016;28;20017;-61
2023/05/04 11:59:29;;;;;;;;;;;18.20;99.90;;;;;;5098375;28;20379;-61
2023/05/04 12:01:55;;;;;;;;;;;18.10;99.90;;;;;;5098418;28;19908;-61
2023/05/04 12:04:20;;;;;;;;;;;17.80;99.90;;;;;;5098177;28;19958;-61
2023/05/04 12:06:46;;;;;;;;;;;17.70;99.90;;;;;;5098266;28;19916;-61
2023/05/04 12:09:12;;;;;;;;;;;17.70;99.90;;;;;;5098060;28;19908;-61
2023/05/04 12:11:39;;;;;;;;;;;17.50;99.90;;;;;;5098271;28;19939;-61
2023/05/04 12:14:09;;;;;;;;;;;17.20;99.90;;;;;;5097900;28;19927;-61
2023/05/04 12:16:35;;;;;;;;;;;17.30;99.90;;;;;;5097976;28;19931;-61
2023/05/04 12:19:04;;;;;;;;;;;17.50;99.90;;;;;;5098200;28;19914;-61
2023/05/04 12:21:30;;;;;;;;;;;17.70;99.90;;;;;;5097923;28;19912;-61
2023/05/04 12:23:57;;;;;;;;;;;17.60;99.90;;;;;;5098079;28;19936;-61
2023/05/04 12:26:22;;;;;;;;;;;17.50;99.90;;;;;;5097980;28;19914;-61
2023/05/04 12:28:48;;;;;;;;;;;17.30;99.90;;;;;;5079547;28;19908;-61
2023/05/04 12:31:14;;;;;;;;;;;17.30;99.90;;;;;;5098314;28;19920;-61
2023/05/04 12:33:39;;;;;;;;;;;17.30;99.90;;;;;;5097969;28;19988;-61
2023/05/04 12:36:05;;;;;;;;;;;17.40;99.90;;;;;;5098138;28;19991;-61
2023/05/04 12:38:31;;;;;;;;;;;17.30;99.90;;;;;;5098192;28;19919;-61
2023/05/04 12:40:59;;;;;;;;;;;17.30;99.90;;;;;;5097969;28;19916;-61
2023/05/04 12:43:25;;;;;;;;;;;17.60;99.90;;;;;;5097607;28;20434;-61
2023/05/04 12:45:51;;;;;;;;;;;17.90;99.90;;;;;;5097521;28;20317;-61
2023/05/04 12:48:19;;;;;;;;;;;18.30;99.90;;;;;;5098062;28;19916;-61
2023/05/04 12:50:45;;;;;;;;;;;18.60;99.90;;;;;;5099679;28;20350;-61
2023/05/04 12:53:10;;;;;;;;;;;18.90;99.90;;;;;;5101817;28;19962;-61
2023/05/04 12:55:36;;;;;;;;;;;19.00;99.90;;;;;;5101892;28;19908;-61
2023/05/04 12:58:02;;;;;;;;;;;19.00;99.90;;;;;;5101568;28;19962;-61
2023/05/04 13:00:30;;;;;;;;;;;18.80;99.90;;;;;;5101753;28;19916;-61
2023/05/04 13:02:59;;;;;;;;;;;18.90;99.90;;;;;;5101464;28;20386;-61
2023/05/04 13:05:24;;;;;;;;;;;19.30;99.90;;;;;;5101413;28;19954;-61
2023/05/04 13:07:53;;;;;;;;;;;19.60;99.90;;;;;;5101499;28;19908;-61
2023/05/04 13:10:19;;;;;;;;;;;20.20;99.90;;;;;;5101410;28;19908;-61
2023/05/04 13:12:45;;;;;;;;;;;20.00;99.90;;;;;;5101298;28;20003;-62
2023/05/04 13:15:10;;;;;;;;;;;19.90;99.90;;;;;;5101297;28;19948;-62
2023/05/04 13:17:42;;;;;;;;;;;19.80;99.90;;;;;;5101527;28;20460;-61
2023/05/04 13:20:08;;;;;;;;;;;19.80;99.90;;;;;;5101179;28;19908;-61
2023/05/04 13:22:34;;;;;;;;;;;19.70;99.90;;;;;;5100997;28;20379;-61
2023/05/04 13:24:59;;;;;;;;;;;19.40;99.90;;;;;;5101199;28;19915;-61
2023/05/04 13:27:25;;;;;;;;;;;19.40;99.90;;;;;;5100939;28;19909;-61
2023/05/04 13:29:51;;;;;;;;;;;19.50;99.90;;;;;;5101383;28;19939;-61
2023/05/04 13:32:37;;;;;;;;;;;19.30;99.90;;;;;;5100775;28;19958;-61
2023/05/04 13:35:05;;;;;;;;;;;19.20;99.90;;;;;;5085931;28;19912;-61
2023/05/04 13:37:31;;;;;;;;;;;19.30;99.90;;;;;;5100975;28;20086;-61
2023/05/04 13:39:58;;;;;;;;;;;19.50;99.90;;;;;;5101124;28;19963;-61
2023/05/04 13:42:24;;;;;;;;;;;19.60;99.90;;;;;;5100482;28;20366;-61
2023/05/04 13:44:49;;;;;;;;;;;19.90;99.90;;;;;;5100510;28;19908;-61
2023/05/04 13:47:16;;;;;;;;;;;19.90;99.90;;;;;;5100611;28;19929;-61
2023/05/04 13:49:42;;;;;;;;;;;19.50;99.90;;;;;;5100853;28;19908;-61
2023/05/04 13:52:08;;;;;;;;;;;19.10;99.90;;;;;;5100673;28;19918;-61
2023/05/04 13:54:34;;;;;;;;;;;19.00;99.90;;;;;;5100583;28;20430;-61
2023/05/04 13:57:00;;;;;;;;;;;19.10;99.90;;;;;;5100277;28;19908;-61
2023/05/04 13:59:25;;;;;;;;;;;19.10;99.90;;;;;;5100818;28;19916;-61
2023/05/04 14:01:52;;;;;;;;;;;19.00;99.90;;;;;;5099757;28;20282;-61
2023/05/04 14:04:17;;;;;;;;;;;18.70;99.90;;;;;;5100277;28;19912;-61
2023/05/04 14:06:46;;;;;;;;;;;18.80;99.90;;;;;;5100365;28;19938;-61
2023/05/04 14:09:12;;;;;;;;;;;19.10;99.90;;;;;;5100040;28;19908;-61
2023/05/04 14:11:38;;;;;;;;;;;19.00;99.90;;;;;;5081708;28;19908;-61
2023/05/04 14:14:04;;;;;;;;;;;18.80;99.90;;;;;;5099953;28;19924;-61